Time;durP1;ratioP1;P1;durP2;ratioP2;P2;SDS_P1;SDS_P2;PMS_P1;PMS_P2;Temp;Humidity;BMP_temperature;BMP_pressure;BME280_temperature;BME280_humidity;BME280_pressure;Samples;Min_cycle;Max_cycle;Signal;HPM_P1;HPM_P2
2021/10/07 00:00:32;;;;;;;5.67;0.97;;;13.80;99.90;;;;;;5070502;28;20205;-64
2021/10/07 00:02:58;;;;;;;3.07;1.30;;;13.80;99.90;;;;;;5070486;28;20240;-64
2021/10/07 00:05:25;;;;;;;2.30;1.00;;;13.80;99.90;;;;;;5070266;28;20232;-64
2021/10/07 00:07:52;;;;;;;3.80;1.63;;;13.80;99.90;;;;;;5070493;28;20232;-64
2021/10/07 00:10:20;;;;;;;3.70;1.10;;;13.90;99.90;;;;;;5070789;28;20230;-64
2021/10/07 00:12:47;;;;;;;2.53;0.93;;;13.90;99.90;;;;;;5070976;28;20656;-64
2021/10/07 00:15:14;;;;;;;3.67;1.27;;;13.90;99.90;;;;;;5070528;28;20209;-64
2021/10/07 00:17:41;;;;;;;2.03;1.23;;;13.80;99.90;;;;;;5070549;28;20205;-64
2021/10/07 00:20:10;;;;;;;2.83;1.20;;;13.80;99.90;;;;;;5070524;28;20205;-64
2021/10/07 00:22:38;;;;;;;3.20;1.40;;;13.80;99.90;;;;;;5070555;28;20228;-65
2021/10/07 00:25:07;;;;;;;2.10;1.30;;;13.80;99.90;;;;;;5070511;28;20209;-64
2021/10/07 00:27:36;;;;;;;2.43;1.37;;;13.80;99.90;;;;;;5072418;28;20209;-64
2021/10/07 00:30:06;;;;;;;5.17;1.40;;;13.80;99.90;;;;;;5074968;28;20205;-64
2021/10/07 00:32:35;;;;;;;1.50;1.20;;;13.80;99.90;;;;;;5074177;28;20258;-64
2021/10/07 00:35:18;;;;;;;1.03;0.90;;;13.70;99.90;;;;;;5074159;28;20605;-64
2021/10/07 00:40:29;;;;;;;2.10;0.97;;;13.70;99.90;;;;;;5075425;28;20200;-64
2021/10/07 00:42:57;;;;;;;1.87;1.20;;;13.60;99.90;;;;;;5075197;28;20601;-64
2021/10/07 00:45:24;;;;;;;3.17;1.30;;;13.50;99.90;;;;;;5075190;28;20212;-65
2021/10/07 00:47:51;;;;;;;2.37;1.27;;;13.50;99.90;;;;;;5074142;28;20229;-65
2021/10/07 00:50:17;;;;;;;2.73;1.07;;;13.50;99.90;;;;;;5074095;28;20292;-64
2021/10/07 00:52:44;;;;;;;1.47;1.20;;;13.50;99.90;;;;;;5073815;28;20205;-64
2021/10/07 00:55:13;;;;;;;1.53;0.90;;;13.50;99.90;;;;;;5073690;28;20216;-64
2021/10/07 00:57:41;;;;;;;2.37;1.20;;;13.50;99.90;;;;;;5073885;28;20216;-64
2021/10/07 01:00:10;;;;;;;1.97;1.17;;;13.50;99.90;;;;;;5074231;28;20209;-64
2021/10/07 01:02:37;;;;;;;2.10;1.20;;;13.50;99.90;;;;;;5073279;28;20232;-64
2021/10/07 01:05:05;;;;;;;3.37;1.40;;;13.60;99.90;;;;;;5073273;28;20216;-64
2021/10/07 01:07:33;;;;;;;1.53;1.20;;;13.60;99.90;;;;;;5073080;28;20204;-64
2021/10/07 01:10:00;;;;;;;3.53;1.10;;;13.70;99.90;;;;;;5072929;28;20228;-64
2021/10/07 01:12:26;;;;;;;2.63;1.07;;;13.60;99.90;;;;;;5073252;28;20201;-64
2021/10/07 01:14:54;;;;;;;1.90;1.20;;;13.70;99.90;;;;;;5073078;28;20209;-64
2021/10/07 01:17:24;;;;;;;2.60;1.40;;;13.70;99.90;;;;;;5073068;28;20259;-64
2021/10/07 01:19:54;;;;;;;2.83;1.33;;;13.70;99.90;;;;;;5073035;28;20231;-64
2021/10/07 01:22:23;;;;;;;1.73;1.20;;;13.80;99.90;;;;;;5073134;28;20221;-64
2021/10/07 01:24:50;;;;;;;1.87;1.10;;;13.80;99.90;;;;;;5072664;28;20213;-64
2021/10/07 01:27:19;;;;;;;2.50;1.20;;;13.80;99.90;;;;;;5072866;28;20209;-64
2021/10/07 01:29:51;;;;;;;3.83;1.57;;;13.80;99.90;;;;;;5072439;28;20232;-64
2021/10/07 01:32:17;;;;;;;3.43;1.33;;;13.80;99.90;;;;;;5072769;28;20288;-64
2021/10/07 01:34:44;;;;;;;2.03;1.17;;;13.70;99.90;;;;;;5072432;28;20200;-64
2021/10/07 01:37:12;;;;;;;3.10;1.60;;;13.70;99.90;;;;;;5072261;28;20204;-64
2021/10/07 01:39:39;;;;;;;4.00;1.10;;;13.60;99.90;;;;;;5072595;28;20233;-64
2021/10/07 01:42:06;;;;;;;3.60;1.50;;;13.60;99.90;;;;;;5072969;28;20225;-64
2021/10/07 01:44:32;;;;;;;2.90;1.40;;;13.60;99.90;;;;;;5072710;28;20212;-65
2021/10/07 01:46:59;;;;;;;2.57;1.40;;;13.70;99.90;;;;;;5072749;28;21048;-64
2021/10/07 01:49:27;;;;;;;2.67;1.23;;;13.70;99.90;;;;;;5072265;28;20248;-64
2021/10/07 01:51:54;;;;;;;1.90;1.30;;;13.70;99.90;;;;;;5072687;28;20208;-64
2021/10/07 01:54:22;;;;;;;2.70;0.90;;;13.70;99.90;;;;;;5072149;28;20684;-64
2021/10/07 01:56:49;;;;;;;2.83;1.13;;;13.70;99.90;;;;;;5072583;28;20213;-64
2021/10/07 01:59:16;;;;;;;1.80;1.00;;;13.70;99.90;;;;;;5071970;28;20278;-64
2021/10/07 02:01:43;;;;;;;3.77;1.40;;;13.70;99.90;;;;;;5072168;28;20278;-65
2021/10/07 02:04:09;;;;;;;3.43;1.33;;;13.60;99.90;;;;;;5071740;28;20277;-64
2021/10/07 02:06:37;;;;;;;4.53;1.10;;;13.70;99.90;;;;;;5072146;28;20215;-64
2021/10/07 02:09:05;;;;;;;4.17;0.93;;;13.60;99.90;;;;;;5072014;28;20282;-64
2021/10/07 02:11:34;;;;;;;2.03;1.23;;;13.60;99.90;;;;;;5071839;28;20672;-64
2021/10/07 02:14:01;;;;;;;2.67;1.00;;;13.60;99.90;;;;;;5071673;28;20695;-64
2021/10/07 02:16:28;;;;;;;1.73;1.03;;;13.60;99.90;;;;;;5071763;28;20216;-64
2021/10/07 02:18:55;;;;;;;3.47;1.20;;;13.60;99.90;;;;;;5071464;28;20704;-65
2021/10/07 02:21:22;;;;;;;2.13;1.00;;;13.60;99.90;;;;;;5071777;28;20209;-64
2021/10/07 02:23:49;;;;;;;1.80;0.90;;;13.60;99.90;;;;;;5071585;28;20217;-64
2021/10/07 02:26:16;;;;;;;1.93;1.00;;;13.60;99.90;;;;;;5071503;28;20201;-64
2021/10/07 02:28:44;;;;;;;2.63;0.83;;;13.70;99.90;;;;;;5071448;28;20256;-64
2021/10/07 02:31:11;;;;;;;2.60;1.10;;;13.70;99.90;;;;;;5071495;28;20211;-64
2021/10/07 02:33:38;;;;;;;2.40;1.10;;;13.70;99.90;;;;;;5071422;28;20201;-64
2021/10/07 02:36:05;;;;;;;2.33;1.00;;;13.80;99.90;;;;;;5071347;28;20677;-64
2021/10/07 02:38:32;;;;;;;1.90;1.00;;;13.70;99.90;;;;;;5071155;28;20217;-64
2021/10/07 02:40:59;;;;;;;4.83;1.20;;;13.70;99.90;;;;;;5071721;28;20258;-64
2021/10/07 02:43:26;;;;;;;2.30;0.83;;;13.70;99.90;;;;;;5071139;28;20237;-64
2021/10/07 02:45:54;;;;;;;2.60;1.10;;;13.70;99.90;;;;;;5071261;28;20208;-64
2021/10/07 02:48:20;;;;;;;3.10;1.27;;;13.80;99.90;;;;;;5071285;28;20229;-64
2021/10/07 02:50:47;;;;;;;3.63;1.17;;;13.80;99.90;;;;;;5071038;28;20205;-64
2021/10/07 02:53:14;;;;;;;6.13;1.33;;;13.80;99.90;;;;;;5071940;28;20247;-64
2021/10/07 02:55:40;;;;;;;1.20;1.00;;;13.70;99.90;;;;;;5071341;28;20232;-64
2021/10/07 02:58:07;;;;;;;3.73;1.20;;;13.70;99.90;;;;;;5071251;28;20252;-64
2021/10/07 03:00:34;;;;;;;2.87;1.03;;;13.70;99.90;;;;;;5071776;28;20216;-64
2021/10/07 03:03:02;;;;;;;3.37;1.37;;;13.70;99.90;;;;;;5071264;28;20229;-64
2021/10/07 03:05:29;;;;;;;4.27;2.07;;;13.70;99.90;;;;;;5071090;28;20205;-64
2021/10/07 03:07:55;;;;;;;4.53;2.00;;;13.70;99.90;;;;;;5070992;28;20221;-64
2021/10/07 03:10:23;;;;;;;8.50;4.50;;;13.80;99.90;;;;;;5071288;28;20209;-64
2021/10/07 03:12:50;;;;;;;4.10;2.00;;;13.80;99.90;;;;;;5071179;28;20216;-63
2021/10/07 03:15:17;;;;;;;8.63;5.37;;;13.80;99.90;;;;;;5070949;28;20212;-64
2021/10/07 03:17:44;;;;;;;3.07;1.03;;;13.80;99.90;;;;;;5071000;28;20204;-64
2021/10/07 03:20:13;;;;;;;2.67;1.70;;;13.80;99.90;;;;;;5071052;28;20440;-64
2021/10/07 03:22:40;;;;;;;29.73;22.23;;;13.80;99.90;;;;;;5071372;28;20235;-64
2021/10/07 03:25:07;;;;;;;5.67;3.73;;;13.80;99.90;;;;;;5070578;28;20295;-64
2021/10/07 03:27:34;;;;;;;3.20;2.20;;;13.80;99.90;;;;;;5070916;28;20212;-65
2021/10/07 03:30:01;;;;;;;2.13;1.30;;;13.90;99.90;;;;;;5070919;28;20274;-64
2021/10/07 03:32:27;;;;;;;3.13;1.60;;;13.90;99.90;;;;;;5070865;28;20208;-64
2021/10/07 03:34:55;;;;;;;5.53;3.63;;;13.90;99.90;;;;;;5071009;28;20201;-64
2021/10/07 03:37:23;;;;;;;3.57;1.20;;;13.90;99.90;;;;;;5070862;28;20559;-64
2021/10/07 03:39:49;;;;;;;4.90;1.20;;;13.90;99.90;;;;;;5070699;28;20650;-64
2021/10/07 03:42:16;;;;;;;3.23;1.07;;;13.90;99.90;;;;;;5071082;28;20229;-64
2021/10/07 03:44:43;;;;;;;2.60;1.40;;;13.90;99.90;;;;;;5070602;28;20255;-64
2021/10/07 03:47:10;;;;;;;7.73;5.03;;;13.90;99.90;;;;;;5070435;28;20564;-64
2021/10/07 03:49:36;;;;;;;6.27;3.53;;;13.90;99.90;;;;;;5070620;28;20220;-64
2021/10/07 03:52:04;;;;;;;5.43;2.97;;;13.90;99.90;;;;;;5070655;28;20208;-64
2021/10/07 03:54:32;;;;;;;2.93;1.53;;;13.90;99.90;;;;;;5070478;28;20311;-64
2021/10/07 03:56:58;;;;;;;4.00;2.50;;;13.80;99.90;;;;;;5070791;28;20671;-64
2021/10/07 03:59:25;;;;;;;6.77;4.73;;;13.80;99.90;;;;;;5070650;28;20254;-64
2021/10/07 04:01:52;;;;;;;10.33;6.10;;;13.80;99.90;;;;;;5071912;28;20217;-64
2021/10/07 04:04:18;;;;;;;13.77;9.20;;;13.80;99.90;;;;;;5074426;28;20209;-64
2021/10/07 04:06:45;;;;;;;8.97;5.00;;;13.80;99.90;;;;;;5074941;28;20423;-64
2021/10/07 04:09:12;;;;;;;12.47;8.83;;;13.80;99.90;;;;;;5073937;28;20237;-64
2021/10/07 04:11:40;;;;;;;5.37;3.60;;;13.80;99.90;;;;;;5074317;28;20213;-64
2021/10/07 04:14:07;;;;;;;2.70;1.87;;;13.80;99.90;;;;;;5074268;28;20197;-64
2021/10/07 04:16:33;;;;;;;3.50;2.17;;;13.90;99.90;;;;;;5074041;28;20205;-64
2021/10/07 04:19:00;;;;;;;5.83;3.60;;;13.90;99.90;;;;;;5073812;28;20229;-64
2021/10/07 04:21:27;;;;;;;5.37;2.27;;;13.90;99.90;;;;;;5073881;28;20208;-64
2021/10/07 04:23:54;;;;;;;3.20;2.10;;;13.90;99.90;;;;;;5073849;28;20260;-64
2021/10/07 04:26:20;;;;;;;3.63;2.53;;;13.90;99.90;;;;;;5074074;28;20752;-64
2021/10/07 04:28:48;;;;;;;4.97;3.00;;;13.90;99.90;;;;;;5073641;28;20241;-65
2021/10/07 04:31:16;;;;;;;8.17;5.13;;;13.90;99.90;;;;;;5074044;28;20208;-65
2021/10/07 04:33:43;;;;;;;3.90;1.70;;;13.90;99.90;;;;;;5073595;28;20624;-64
2021/10/07 04:36:09;;;;;;;2.60;1.53;;;13.90;99.90;;;;;;5073371;28;20205;-64
2021/10/07 04:38:36;;;;;;;6.97;5.10;;;13.90;99.90;;;;;;5073551;28;20654;-64
2021/10/07 04:41:03;;;;;;;1.57;1.30;;;13.90;99.90;;;;;;5073454;28;20681;-64
2021/10/07 04:43:30;;;;;;;6.23;1.80;;;13.80;99.90;;;;;;5073346;28;20229;-64
2021/10/07 04:45:58;;;;;;;4.07;2.27;;;13.80;99.90;;;;;;5073231;28;20205;-64
2021/10/07 04:48:24;;;;;;;3.53;1.97;;;13.80;99.90;;;;;;5073242;28;20229;-64
2021/10/07 04:50:51;;;;;;;4.77;1.37;;;13.80;99.90;;;;;;5073301;28;20213;-64
2021/10/07 04:53:21;;;;;;;2.30;1.47;;;13.70;99.90;;;;;;5073412;28;20201;-65
2021/10/07 04:55:50;;;;;;;2.73;1.30;;;13.60;99.90;;;;;;5073361;28;20213;-64
2021/10/07 04:58:17;;;;;;;4.07;1.70;;;13.60;99.90;;;;;;5073088;28;20575;-65
2021/10/07 05:00:44;;;;;;;8.43;2.00;;;13.60;99.90;;;;;;5073152;28;20231;-64
2021/10/07 05:03:12;;;;;;;6.10;3.30;;;13.50;99.90;;;;;;5072988;28;20228;-65
2021/10/07 05:05:38;;;;;;;3.77;1.87;;;13.50;99.90;;;;;;5072883;28;20665;-64
2021/10/07 05:08:06;;;;;;;2.63;2.10;;;13.40;99.90;;;;;;5072941;28;20225;-63
2021/10/07 05:10:33;;;;;;;7.30;4.07;;;13.40;99.90;;;;;;5073297;28;20676;-64
2021/10/07 05:13:00;;;;;;;3.63;2.50;;;13.40;99.90;;;;;;5072634;28;20200;-64
2021/10/07 05:15:26;;;;;;;4.07;3.07;;;13.50;99.90;;;;;;5072915;28;20227;-65
2021/10/07 05:17:53;;;;;;;3.13;2.40;;;13.50;99.90;;;;;;5072554;28;20225;-65
2021/10/07 05:20:21;;;;;;;4.00;1.70;;;13.50;99.90;;;;;;5073155;28;20579;-64
2021/10/07 05:22:48;;;;;;;4.70;1.60;;;13.60;99.90;;;;;;5072660;28;20715;-64
2021/10/07 05:25:15;;;;;;;2.50;1.53;;;13.60;99.90;;;;;;5072759;28;20221;-64
2021/10/07 05:27:42;;;;;;;5.30;2.00;;;13.60;99.90;;;;;;5072392;28;20223;-66
2021/10/07 05:30:10;;;;;;;2.53;1.70;;;13.50;99.90;;;;;;5072829;28;20669;-64
2021/10/07 05:32:38;;;;;;;2.17;1.60;;;13.30;99.90;;;;;;5072627;28;20208;-64
2021/10/07 05:35:06;;;;;;;2.90;1.63;;;13.20;99.90;;;;;;5072578;28;20262;-64
2021/10/07 05:37:34;;;;;;;4.30;2.07;;;13.00;99.90;;;;;;5072736;28;20223;-65
2021/10/07 05:40:01;;;;;;;3.03;1.90;;;12.90;99.90;;;;;;5072508;28;20212;-65
2021/10/07 05:42:28;;;;;;;2.33;1.70;;;12.90;99.90;;;;;;5072646;28;20219;-64
2021/10/07 05:44:55;;;;;;;2.33;1.60;;;12.90;99.90;;;;;;5072630;28;20205;-64
2021/10/07 05:47:21;;;;;;;3.80;1.60;;;12.90;99.90;;;;;;5072406;28;20575;-64
2021/10/07 05:49:48;;;;;;;4.87;1.70;;;12.90;99.90;;;;;;5072373;28;20221;-65
2021/10/07 05:52:15;;;;;;;2.00;1.63;;;12.80;99.90;;;;;;5072416;28;20231;-64
2021/10/07 05:54:43;;;;;;;4.87;2.00;;;12.80;99.90;;;;;;5072171;28;20201;-63
2021/10/07 05:57:10;;;;;;;2.17;1.70;;;12.70;99.90;;;;;;5072191;28;20563;-64
2021/10/07 05:59:37;;;;;;;3.73;2.00;;;12.80;99.90;;;;;;5071702;28;20233;-64
2021/10/07 06:02:04;;;;;;;5.47;2.30;;;12.80;99.90;;;;;;5072001;28;20283;-64
2021/10/07 06:04:31;;;;;;;3.63;2.57;;;12.80;99.90;;;;;;5071987;28;20225;-64
2021/10/07 06:06:59;;;;;;;4.37;2.10;;;12.80;99.90;;;;;;5072104;28;20204;-64
2021/10/07 06:09:25;;;;;;;7.77;3.77;;;12.90;99.90;;;;;;5071813;28;20224;-64
2021/10/07 06:11:55;;;;;;;4.77;3.17;;;12.90;99.90;;;;;;5071810;28;20209;-64
2021/10/07 06:14:23;;;;;;;5.23;3.53;;;13.00;99.90;;;;;;5072132;28;20205;-64
2021/10/07 06:16:53;;;;;;;5.67;2.43;;;13.10;99.90;;;;;;5072001;28;20321;-63
2021/10/07 06:19:23;;;;;;;2.30;2.10;;;13.20;99.90;;;;;;5071525;28;20224;-64
2021/10/07 06:21:50;;;;;;;3.93;1.87;;;13.30;99.90;;;;;;5071783;28;20200;-63
2021/10/07 06:24:17;;;;;;;3.53;1.80;;;13.40;99.90;;;;;;5071063;28;20233;-65
2021/10/07 06:26:44;;;;;;;3.77;2.00;;;13.50;99.90;;;;;;5071379;28;20205;-63
2021/10/07 06:29:13;;;;;;;3.03;2.10;;;13.50;99.90;;;;;;5071806;28;20237;-63
2021/10/07 06:31:40;;;;;;;4.83;2.60;;;13.50;99.90;;;;;;5071428;28;20270;-64
2021/10/07 06:34:08;;;;;;;5.27;2.10;;;13.60;99.90;;;;;;5071209;28;20684;-65
2021/10/07 06:36:36;;;;;;;2.63;1.63;;;13.70;99.90;;;;;;5071472;28;20216;-63
2021/10/07 06:39:04;;;;;;;5.10;2.10;;;13.70;99.90;;;;;;5071445;28;20638;-64
2021/10/07 06:41:31;;;;;;;4.60;2.10;;;13.80;99.90;;;;;;5071647;28;20258;-64
2021/10/07 06:43:58;;;;;;;3.63;2.00;;;13.90;99.90;;;;;;5071442;28;20758;-64
2021/10/07 06:46:26;;;;;;;4.23;2.07;;;13.90;99.90;;;;;;5071519;28;20616;-66
2021/10/07 06:48:55;;;;;;;6.37;2.70;;;14.10;99.90;;;;;;5071530;28;20232;-65
2021/10/07 06:51:22;;;;;;;3.80;2.10;;;14.20;99.90;;;;;;5071646;28;20232;-65
2021/10/07 06:53:50;;;;;;;7.67;2.43;;;14.30;99.90;;;;;;5071042;28;20208;-65
2021/10/07 06:56:16;;;;;;;5.60;2.57;;;14.30;99.90;;;;;;5071739;28;20205;-64
2021/10/07 06:58:44;;;;;;;4.57;2.50;;;14.40;99.90;;;;;;5071545;28;20236;-64
2021/10/07 07:01:10;;;;;;;6.10;2.70;;;14.60;99.90;;;;;;5071483;28;20217;-64
2021/10/07 07:03:38;;;;;;;4.87;2.90;;;14.70;99.90;;;;;;5071223;28;20216;-64
2021/10/07 07:06:05;;;;;;;10.07;2.90;;;14.80;99.90;;;;;;5071224;28;20319;-64
2021/10/07 07:08:32;;;;;;;8.97;2.97;;;14.70;99.90;;;;;;5071054;28;20229;-64
2021/10/07 07:10:58;;;;;;;7.97;2.93;;;14.70;99.90;;;;;;5070823;28;20211;-64
2021/10/07 07:13:25;;;;;;;5.53;2.93;;;14.90;99.90;;;;;;5070177;28;20645;-64
2021/10/07 07:15:52;;;;;;;5.93;2.97;;;14.90;99.90;;;;;;5070956;28;20234;-64
2021/10/07 07:18:18;;;;;;;4.60;2.60;;;15.00;99.90;;;;;;5070623;28;20274;-64
2021/10/07 07:20:46;;;;;;;7.77;3.13;;;15.10;99.90;;;;;;5071303;28;20262;-64
2021/10/07 07:23:13;;;;;;;7.93;3.17;;;15.30;99.90;;;;;;5070925;28;20630;-64
2021/10/07 07:25:40;;;;;;;5.03;3.37;;;15.40;99.90;;;;;;5070737;28;20209;-64
2021/10/07 07:28:07;;;;;;;5.47;3.60;;;15.50;99.90;;;;;;5070592;28;20236;-64
2021/10/07 07:30:34;;;;;;;6.37;3.33;;;15.60;99.90;;;;;;5070449;28;20707;-64
2021/10/07 07:33:01;;;;;;;7.80;3.10;;;15.50;99.90;;;;;;5070696;28;20591;-64
2021/10/07 07:35:31;;;;;;;5.67;3.60;;;15.50;99.90;;;;;;5071107;28;20219;-64
2021/10/07 07:37:59;;;;;;;5.23;3.30;;;15.70;99.90;;;;;;5074617;28;20595;-64
2021/10/07 07:40:27;;;;;;;5.97;3.63;;;16.00;99.90;;;;;;5074903;28;20672;-64
2021/10/07 07:42:54;;;;;;;6.10;3.77;;;16.00;99.90;;;;;;5074849;28;20243;-63
2021/10/07 07:45:21;;;;;;;5.03;3.33;;;15.90;99.90;;;;;;5074546;28;20307;-63
2021/10/07 07:47:47;;;;;;;5.50;3.07;;;16.00;99.90;;;;;;5074895;28;20209;-63
2021/10/07 07:50:18;;;;;;;4.37;3.43;;;15.90;99.90;;;;;;5074694;28;20627;-63
2021/10/07 07:52:45;;;;;;;12.27;7.93;;;15.80;99.90;;;;;;5074766;28;20313;-63
2021/10/07 07:55:14;;;;;;;5.20;3.87;;;16.10;99.90;;;;;;5074255;28;20208;-65
2021/10/07 07:57:40;;;;;;;5.63;3.37;;;16.40;99.90;;;;;;5074353;28;20209;-63
2021/10/07 08:00:09;;;;;;;5.23;4.10;;;16.80;99.90;;;;;;5074100;28;20215;-64
2021/10/07 08:02:35;;;;;;;5.73;3.87;;;16.80;99.90;;;;;;5075236;28;20205;-63
2021/10/07 08:05:02;;;;;;;4.40;3.40;;;16.30;99.90;;;;;;5074390;28;20221;-64
2021/10/07 08:07:29;;;;;;;5.77;5.17;;;16.20;99.90;;;;;;5074289;28;20228;-64
2021/10/07 08:09:55;;;;;;;5.07;4.10;;;16.40;99.90;;;;;;5073981;28;20278;-64
2021/10/07 08:12:23;;;;;;;5.17;4.03;;;16.80;99.90;;;;;;5074000;28;20212;-64
2021/10/07 08:14:51;;;;;;;6.63;4.10;;;17.20;99.90;;;;;;5073827;28;20209;-64
2021/10/07 08:17:18;;;;;;;7.53;4.30;;;17.30;99.90;;;;;;5073904;28;20669;-64
2021/10/07 08:19:46;;;;;;;7.20;4.65;;;17.10;99.90;;;;;;5071169;28;20473;-66
2021/10/07 08:22:12;;;;;;;5.87;4.43;;;16.80;99.90;;;;;;5073617;28;20688;-65
2021/10/07 08:24:39;;;;;;;6.03;4.03;;;16.90;99.90;;;;;;5073370;28;20224;-65
2021/10/07 08:27:06;;;;;;;6.10;4.90;;;16.70;99.90;;;;;;5073580;28;20211;-65
2021/10/07 08:29:34;;;;;;;5.93;4.30;;;17.00;99.90;;;;;;5072921;28;20240;-66
2021/10/07 08:32:00;;;;;;;8.27;4.50;;;17.40;99.90;;;;;;5073676;28;20627;-67
2021/10/07 08:34:27;;;;;;;7.73;4.23;;;17.60;99.90;;;;;;5073548;28;20201;-64
2021/10/07 08:36:54;;;;;;;6.32;4.28;;;17.60;99.90;;;;;;5073405;28;20562;-64
2021/10/07 08:39:21;;;;;;;5.53;4.05;;;17.60;99.90;;;;;;5073214;28;20229;-64
2021/10/07 08:41:49;;;;;;;4.72;4.30;;;17.80;99.90;;;;;;5073380;28;20258;-64
2021/10/07 08:44:16;;;;;;;4.97;4.00;;;17.90;99.90;;;;;;5073128;28;20229;-63
2021/10/07 08:46:47;;;;;;;4.15;3.75;;;17.70;99.90;;;;;;5073349;28;20211;-63
2021/10/07 08:49:14;;;;;;;5.65;4.30;;;17.90;99.90;;;;;;5072845;28;20229;-63
2021/10/07 08:51:41;;;;;;;6.10;4.25;;;18.00;99.90;;;;;;5073291;28;20673;-64
2021/10/07 08:54:08;;;;;;;6.60;4.07;;;17.90;99.90;;;;;;5073345;28;20197;-64
2021/10/07 08:56:35;;;;;;;7.47;4.68;;;17.90;99.90;;;;;;5073040;28;20205;-65
2021/10/07 08:59:02;;;;;;;6.75;4.10;;;17.90;99.90;;;;;;5073315;28;20225;-64
2021/10/07 09:01:39;;;;;;;7.85;4.00;;;18.00;99.90;;;;;;5073130;28;20209;-65
2021/10/07 09:04:25;;;;;;;5.20;3.97;;;18.10;99.90;;;;;;5073137;28;20225;-64
2021/10/07 09:06:54;;;;;;;7.75;4.18;;;18.10;99.90;;;;;;5072885;28;20263;-65
2021/10/07 09:09:22;;;;;;;6.25;3.47;;;18.20;99.90;;;;;;5072757;28;20739;-63
2021/10/07 09:11:56;;;;;;;13.00;3.90;;;18.10;99.90;;;;;;5072985;28;20582;-64
2021/10/07 09:14:25;;;;;;;7.10;3.83;;;17.90;99.90;;;;;;5072689;28;20204;-68
2021/10/07 09:16:53;;;;;;;7.17;3.60;;;17.80;99.90;;;;;;5072917;28;20222;-67
2021/10/07 09:19:23;;;;;;;6.73;3.43;;;17.70;99.90;;;;;;5072595;28;20229;-66
2021/10/07 09:21:52;;;;;;;4.77;3.10;;;17.60;99.90;;;;;;5072946;28;20205;-67
2021/10/07 09:24:30;;;;;;;4.93;3.30;;;17.60;99.90;;;;;;5072546;28;20565;-64
2021/10/07 09:27:00;;;;;;;4.23;2.90;;;17.70;99.90;;;;;;5072607;28;20205;-65
2021/10/07 09:29:40;;;;;;;5.07;3.13;;;17.90;99.90;;;;;;5072262;28;20236;-65
2021/10/07 09:32:08;;;;;;;6.57;2.50;;;18.10;99.90;;;;;;5072434;28;20631;-64
2021/10/07 09:34:45;;;;;;;2.47;2.03;;;18.20;99.90;;;;;;5072694;28;20201;-65
2021/10/07 09:37:33;;;;;;;3.90;2.30;;;18.20;99.90;;;;;;5072594;28;20459;-65
2021/10/07 09:40:04;;;;;;;3.50;2.35;;;18.30;99.90;;;;;;5072330;28;20227;-63
2021/10/07 09:42:35;;;;;;;3.30;2.47;;;18.40;99.90;;;;;;5072208;28;20212;-63
2021/10/07 09:45:07;;;;;;;4.75;3.22;;;18.50;99.90;;;;;;5072201;28;20225;-63
2021/10/07 09:47:36;;;;;;;5.30;3.10;;;18.30;99.90;;;;;;5072329;28;20208;-63
2021/10/07 09:50:26;;;;;;;3.25;2.95;;;18.20;99.90;;;;;;5072330;28;20323;-64
2021/10/07 09:53:05;;;;;;;4.05;2.67;;;18.00;99.90;;;;;;5066996;28;20598;-63
2021/10/07 09:55:35;;;;;;;4.85;3.03;;;17.70;99.90;;;;;;5072131;28;20588;-63
2021/10/07 09:58:03;;;;;;;5.70;3.17;;;17.60;99.90;;;;;;5071924;28;20229;-63
2021/10/07 10:00:34;;;;;;;3.45;2.72;;;17.50;99.90;;;;;;5071899;28;20255;-64
2021/10/07 10:03:01;;;;;;;3.53;2.95;;;17.60;99.90;;;;;;5071972;28;20213;-65
2021/10/07 10:05:37;;;;;;;3.92;3.20;;;17.80;99.90;;;;;;5072003;28;20247;-64
2021/10/07 10:08:05;;;;;;;3.83;2.90;;;18.00;99.90;;;;;;5071959;28;20228;-64
2021/10/07 10:10:32;;;;;;;5.43;2.83;;;18.10;99.90;;;;;;5072066;28;20208;-64
2021/10/07 10:12:59;;;;;;;5.68;2.97;;;18.10;99.90;;;;;;5071779;28;20212;-64
2021/10/07 10:15:27;;;;;;;3.85;3.03;;;18.00;99.90;;;;;;5071550;28;20207;-64
2021/10/07 10:17:53;;;;;;;3.65;2.75;;;18.10;99.90;;;;;;5071381;28;20229;-64
2021/10/07 10:20:22;;;;;;;4.28;3.08;;;18.20;99.90;;;;;;5071756;28;20274;-64
2021/10/07 10:22:57;;;;;;;3.63;2.65;;;18.50;99.90;;;;;;5071506;28;20209;-64
2021/10/07 10:25:25;;;;;;;6.57;2.97;;;18.80;99.90;;;;;;5071411;28;20232;-64
2021/10/07 10:27:55;;;;;;;4.50;2.78;;;19.10;99.90;;;;;;5069173;28;20231;-65
2021/10/07 10:30:31;;;;;;;5.97;3.20;;;19.50;99.90;;;;;;5070943;28;20236;-66
2021/10/07 10:33:01;;;;;;;6.40;3.25;;;19.70;99.90;;;;;;5071365;28;20205;-68
2021/10/07 10:35:42;;;;;;;6.00;3.60;;;19.90;99.90;;;;;;5070722;28;20687;-67
2021/10/07 10:38:12;;;;;;;2.85;2.63;;;19.90;99.90;;;;;;5070717;28;20243;-67
2021/10/07 10:40:40;;;;;;;7.05;5.45;;;20.10;99.90;;;;;;5070639;28;20607;-67
2021/10/07 10:43:34;;;;;;;5.25;2.53;;;20.30;99.90;;;;;;5071121;28;20243;-68
2021/10/07 10:46:14;;;;;;;3.28;2.33;;;20.40;99.90;;;;;;5071145;28;20319;-68
2021/10/07 10:49:02;;;;;;;3.13;2.25;;;20.40;99.90;;;;;;5070758;28;20786;-68
2021/10/07 10:51:35;;;;;;;5.07;2.45;;;20.00;99.90;;;;;;5070820;28;20741;-67
2021/10/07 10:54:10;;;;;;;5.82;2.50;;;19.40;99.90;;;;;;5070854;28;20212;-67
2021/10/07 10:56:43;;;;;;;4.30;2.63;;;19.00;99.90;;;;;;5070671;28;20680;-68
2021/10/07 10:59:30;;;;;;;3.15;2.08;;;19.10;99.90;;;;;;5070253;28;20232;-67
2021/10/07 11:02:27;;;;;;;4.22;3.35;;;19.20;99.90;;;;;;5070778;28;20205;-67
2021/10/07 11:04:56;;;;;;;1.90;1.73;;;19.30;99.90;;;;;;5070340;28;20240;-66
2021/10/07 11:07:27;;;;;;;2.42;1.90;;;19.40;99.90;;;;;;5070590;28;20228;-66
2021/10/07 11:10:18;;;;;;;3.78;1.90;;;19.80;99.90;;;;;;5069858;28;20220;-65
2021/10/07 11:12:53;;;;;;;3.25;1.65;;;20.00;99.90;;;;;;5070958;28;20668;-66
2021/10/07 11:15:26;;;;;;;3.25;2.10;;;20.30;99.90;;;;;;5071275;28;20205;-66
2021/10/07 11:17:54;;;;;;;4.03;2.28;;;20.50;99.90;;;;;;5071431;28;20232;-66
2021/10/07 11:20:23;;;;;;;2.53;1.90;;;20.30;99.90;;;;;;5071554;28;20676;-66
2021/10/07 11:23:03;;;;;;;4.43;1.90;;;20.10;99.90;;;;;;5071163;28;20200;-65
2021/10/07 11:25:31;;;;;;;2.08;1.63;;;19.90;99.90;;;;;;5070572;28;20232;-66
2021/10/07 11:27:58;;;;;;;3.35;2.33;;;19.80;99.90;;;;;;5070305;28;20232;-66
2021/10/07 11:30:27;;;;;;;4.15;2.00;;;19.70;99.90;;;;;;5070544;28;20227;-67
2021/10/07 11:32:53;;;;;;;3.60;1.90;;;19.60;99.90;;;;;;5070555;28;20200;-66
2021/10/07 11:35:22;;;;;;;2.03;1.60;;;19.40;99.90;;;;;;5070687;28;20201;-65
2021/10/07 11:38:04;;;;;;;4.30;2.00;;;19.20;99.90;;;;;;5070456;28;20702;-65
2021/10/07 11:40:37;;;;;;;4.20;1.80;;;18.60;99.90;;;;;;5070124;28;20209;-66
2021/10/07 11:43:06;;;;;;;4.93;2.10;;;18.00;99.90;;;;;;5070491;28;20555;-66
2021/10/07 11:45:36;;;;;;;3.50;2.25;;;17.70;99.90;;;;;;5070163;28;20283;-67
2021/10/07 11:48:08;;;;;;;2.35;2.10;;;17.50;99.90;;;;;;5070489;28;20244;-65
2021/10/07 11:50:38;;;;;;;2.67;2.05;;;17.60;99.90;;;;;;5070412;28;20232;-66
2021/10/07 11:53:06;;;;;;;2.45;2.15;;;17.60;99.90;;;;;;5071115;28;20235;-66
2021/10/07 11:55:34;;;;;;;2.92;2.03;;;17.60;99.90;;;;;;5070332;28;20224;-68
2021/10/07 11:58:02;;;;;;;5.88;2.33;;;17.70;99.90;;;;;;5069995;28;20228;-67
2021/10/07 12:00:44;;;;;;;3.78;2.17;;;17.80;99.90;;;;;;5070153;28;20212;-64
2021/10/07 12:03:14;;;;;;;3.08;2.00;;;17.80;99.90;;;;;;5070447;28;20608;-65
2021/10/07 12:05:42;;;;;;;2.20;1.98;;;17.50;99.90;;;;;;5070076;28;20256;-63
2021/10/07 12:08:11;;;;;;;3.63;1.98;;;17.60;99.90;;;;;;5069791;28;20225;-64
2021/10/07 12:10:43;;;;;;;3.35;2.08;;;17.70;99.90;;;;;;5070316;28;20622;-64
2021/10/07 12:13:12;;;;;;;3.40;2.23;;;17.90;99.90;;;;;;5070178;28;20216;-64
2021/10/07 12:15:40;;;;;;;3.08;2.00;;;18.10;99.90;;;;;;5069761;28;20338;-65
2021/10/07 12:18:07;;;;;;;3.50;1.80;;;18.10;99.90;;;;;;5069426;28;20232;-68
2021/10/07 12:20:34;;;;;;;3.72;1.63;;;18.30;99.90;;;;;;5069929;28;20216;-65
2021/10/07 12:23:02;;;;;;;2.10;1.37;;;18.40;99.90;;;;;;5071496;28;20538;-65
2021/10/07 12:25:29;;;;;;;2.53;1.67;;;18.40;99.90;;;;;;5073446;28;20229;-65
2021/10/07 12:28:06;;;;;;;3.92;1.95;;;18.50;99.90;;;;;;5097863;22;20247;-63
2021/10/07 12:30:32;;;;;;;2.97;1.92;;;18.60;99.90;;;;;;5039737;28;20218;-67
2021/10/07 12:33:12;;;;;;;3.22;2.35;;;18.60;99.90;;;;;;5035926;28;20210;-65
2021/10/07 12:35:39;;;;;;;2.65;2.10;;;18.70;99.90;;;;;;5038214;28;20460;-67
2021/10/07 12:38:06;;;;;;;3.25;1.90;;;18.70;99.90;;;;;;5054369;28;20225;-65
2021/10/07 12:40:35;;;;;;;3.70;2.25;;;18.80;99.90;;;;;;5054561;28;20263;-64
2021/10/07 12:43:14;;;;;;;2.38;2.10;;;18.70;99.90;;;;;;5053404;28;20259;-64
2021/10/07 12:46:02;;;;;;;3.05;1.85;;;18.70;99.90;;;;;;5053476;28;20221;-63
2021/10/07 12:48:55;;;;;;;2.95;1.90;;;19.00;99.90;;;;;;5053425;28;20280;-66
2021/10/07 12:51:23;;;;;;;2.05;1.38;;;19.00;99.90;;;;;;5053652;28;20220;-64
2021/10/07 12:53:51;;;;;;;2.63;1.95;;;19.00;99.90;;;;;;5053705;28;20213;-65
2021/10/07 12:56:19;;;;;;;2.88;1.50;;;19.20;99.90;;;;;;5053918;28;20209;-65